Time;durP1;ratioP1;P1;durP2;ratioP2;P2;SDS_P1;SDS_P2;PMS_P1;PMS_P2;Temp;Humidity;BMP_temperature;BMP_pressure;BME280_temperature;BME280_humidity;BME280_pressure;Samples;Min_cycle;Max_cycle;Signal;HPM_P1;HPM_P2
2022/04/24 00:01:31;;;;;;;18.77;17.00;;;11.20;99.90;;;11.73;72.94;95922.28;5261557;28;20238;-56
2022/04/24 00:04:05;;;;;;;19.25;17.45;;;11.10;99.90;;;11.63;73.66;95914.38;5260975;28;20246;-57
2022/04/24 00:06:39;;;;;;;18.80;17.00;;;11.10;99.90;;;11.53;73.98;95908.19;5258945;28;20223;-55
2022/04/24 00:09:12;;;;;;;18.70;16.90;;;11.00;99.90;;;11.64;73.16;95911.81;5264432;28;20712;-56
2022/04/24 00:11:45;;;;;;;17.33;15.73;;;11.00;99.90;;;11.58;74.02;95911.69;5259603;28;20249;-55
2022/04/24 00:14:19;;;;;;;18.02;16.23;;;11.00;99.90;;;11.59;73.77;95920.25;5255545;28;20312;-55
2022/04/24 00:16:52;;;;;;;18.83;16.98;;;11.00;99.90;;;11.65;73.48;95921.25;5262831;28;20569;-54
2022/04/24 00:19:27;;;;;;;18.33;16.67;;;11.00;99.90;;;11.50;73.68;95920.91;5254629;28;20208;-54
2022/04/24 00:22:00;;;;;;;18.58;16.77;;;11.00;99.90;;;11.52;73.54;95915.84;5250004;28;20648;-56
2022/04/24 00:24:33;;;;;;;17.77;16.08;;;11.00;99.90;;;11.53;73.46;95920.97;5250850;28;20292;-56
2022/04/24 00:27:07;;;;;;;18.52;16.80;;;10.90;99.90;;;11.41;74.32;95905.38;5251243;28;20244;-55
2022/04/24 00:29:40;;;;;;;17.58;15.95;;;10.80;99.90;;;11.47;74.27;95900.38;5258171;28;20587;-55
2022/04/24 00:32:13;;;;;;;17.90;16.20;;;10.80;99.90;;;11.45;74.25;95895.25;5255376;28;20737;-57
2022/04/24 00:34:48;;;;;;;18.30;16.60;;;10.80;99.90;;;11.34;74.46;95891.59;5255067;28;20251;-56
2022/04/24 00:37:21;;;;;;;17.38;15.73;;;10.80;99.90;;;11.43;73.95;95880.69;5254570;28;20301;-53
2022/04/24 00:39:54;;;;;;;16.75;15.18;;;10.80;99.90;;;11.47;74.34;95867.13;5256250;28;20231;-56
2022/04/24 00:42:27;;;;;;;17.48;15.88;;;10.80;99.90;;;11.45;74.25;95868.81;5254577;28;20365;-55
2022/04/24 00:45:00;;;;;;;18.17;16.48;;;10.80;99.90;;;11.41;73.98;95867.84;5251129;28;20290;-52
2022/04/24 00:47:33;;;;;;;17.52;15.88;;;10.80;99.90;;;11.37;74.50;95870.31;5258976;28;20287;-57
2022/04/24 00:50:09;;;;;;;17.45;15.73;;;10.80;99.90;;;11.38;74.56;95867.78;5263154;28;20646;-54
2022/04/24 00:52:42;;;;;;;16.60;15.00;;;10.80;99.90;;;11.45;73.82;95864.53;5253461;28;20724;-52
2022/04/24 00:55:16;;;;;;;16.88;15.38;;;10.80;99.90;;;11.50;73.34;95856.94;5254323;28;20323;-54
2022/04/24 00:57:49;;;;;;;17.50;15.82;;;10.90;99.90;;;11.51;73.73;95851.03;5252955;28;20265;-55
2022/04/24 01:00:22;;;;;;;16.88;15.27;;;11.00;99.90;;;11.50;73.17;95837.38;5247594;28;20239;-53
2022/04/24 01:02:56;;;;;;;17.75;16.13;;;11.00;99.90;;;11.54;73.81;95840.84;5248208;28;20232;-57
2022/04/24 01:05:31;;;;;;;18.27;16.48;;;11.00;99.90;;;11.49;73.68;95850.13;5249245;28;20321;-57
2022/04/24 01:08:05;;;;;;;17.17;15.60;;;10.90;99.90;;;11.53;72.92;95843.34;5252554;28;20283;-56
2022/04/24 01:10:39;;;;;;;16.52;15.02;;;10.90;99.90;;;11.56;73.30;95851.97;5250269;28;20633;-55
2022/04/24 01:13:12;;;;;;;17.42;15.73;;;10.90;99.90;;;11.51;73.51;95848.47;5248587;28;20300;-54
2022/04/24 01:15:45;;;;;;;17.45;15.75;;;10.90;99.90;;;11.67;72.77;95855.59;5251289;28;20568;-54
2022/04/24 01:18:20;;;;;;;17.50;15.90;;;11.00;99.90;;;11.62;72.75;95846.13;5249783;28;20201;-54
2022/04/24 01:20:54;;;;;;;17.90;16.20;;;11.00;99.90;;;11.62;73.53;95852.09;5257134;28;20308;-56
2022/04/24 01:23:27;;;;;;;18.58;16.77;;;11.00;99.90;;;11.64;72.48;95850.41;5254083;28;20345;-55
2022/04/24 01:26:00;;;;;;;17.35;15.65;;;11.00;99.90;;;11.94;71.73;95849.34;5252217;28;20315;-55
2022/04/24 01:28:33;;;;;;;17.13;15.57;;;11.20;99.90;;;11.70;73.08;95850.56;5246863;28;20682;-56
2022/04/24 01:31:06;;;;;;;19.02;17.17;;;11.20;99.90;;;11.68;72.64;95849.66;5252645;28;20644;-56
2022/04/24 01:33:40;;;;;;;18.38;16.65;;;11.10;99.90;;;11.62;73.76;95851.25;5261310;28;20207;-55
2022/04/24 01:36:14;;;;;;;18.38;16.67;;;11.00;99.90;;;11.56;73.96;95849.44;5244062;28;20282;-56
2022/04/24 01:38:47;;;;;;;17.60;16.00;;;11.00;99.90;;;11.57;73.48;95851.13;5248872;28;20635;-57
2022/04/24 01:41:20;;;;;;;16.98;15.40;;;10.90;99.90;;;11.69;72.90;95853.94;5258945;28;20228;-57
2022/04/24 01:43:53;;;;;;;18.95;17.20;;;11.00;99.90;;;11.76;72.79;95851.50;5248790;28;20286;-54
2022/04/24 01:46:26;;;;;;;18.40;16.60;;;11.00;99.90;;;11.67;73.22;95864.97;5254854;28;20311;-55
2022/04/24 01:48:59;;;;;;;18.27;16.58;;;11.00;99.90;;;11.67;73.22;95867.53;5256695;28;20624;-54
2022/04/24 01:51:34;;;;;;;19.63;17.83;;;11.00;99.90;;;11.66;73.38;95868.38;5251436;28;20219;-56
2022/04/24 01:54:07;;;;;;;18.73;16.92;;;10.90;99.90;;;11.64;73.70;95877.72;5251296;28;20263;-56
2022/04/24 01:56:40;;;;;;;17.98;16.40;;;11.00;99.90;;;11.66;73.82;95889.72;5259106;28;20314;-57
2022/04/24 01:59:13;;;;;;;17.67;15.98;;;11.00;99.90;;;11.71;74.00;95888.09;5250222;28;20238;-57
2022/04/24 02:01:46;;;;;;;18.00;16.23;;;11.00;99.90;;;11.78;73.85;95895.91;5249590;28;20228;-54
2022/04/24 02:04:22;;;;;;;16.83;15.23;;;11.00;99.90;;;11.78;74.22;95901.03;5249611;28;20192;-56
2022/04/24 02:06:57;;;;;;;17.50;16.00;;;11.10;99.90;;;11.82;73.87;95910.53;5252991;28;20217;-54
2022/04/24 02:09:30;;;;;;;17.02;15.45;;;11.10;99.90;;;11.82;74.42;95918.19;5252735;28;20667;-57
2022/04/24 02:12:04;;;;;;;16.85;15.23;;;11.10;99.90;;;11.84;73.94;95934.44;5256563;28;20605;-52
2022/04/24 02:14:37;;;;;;;17.48;15.82;;;11.10;99.90;;;11.87;74.17;95934.53;5252986;28;20575;-56
2022/04/24 02:17:11;;;;;;;19.55;17.77;;;11.10;99.90;;;11.85;74.69;95942.19;5255536;28;20628;-56
2022/04/24 02:19:44;;;;;;;16.50;14.95;;;11.10;99.90;;;11.85;75.08;95951.53;5260561;28;20204;-56
2022/04/24 02:22:20;;;;;;;16.05;14.50;;;11.00;99.90;;;11.87;74.93;95962.69;5258514;28;21947;-53
2022/04/24 02:24:53;;;;;;;18.38;16.65;;;11.00;99.90;;;11.85;75.03;95959.22;5250787;28;20235;-56
2022/04/24 02:27:27;;;;;;;17.65;16.05;;;11.10;99.90;;;11.82;74.71;95956.59;5259896;28;20232;-57
2022/04/24 02:30:00;;;;;;;18.38;16.67;;;11.00;99.90;;;11.75;74.74;95958.13;5260650;28;20664;-56
2022/04/24 02:32:33;;;;;;;17.42;15.82;;;11.00;99.90;;;11.72;75.03;95964.03;5255722;28;20198;-57
2022/04/24 02:35:07;;;;;;;18.75;16.92;;;10.90;99.90;;;11.70;75.10;95965.72;5260947;28;20629;-52
2022/04/24 02:37:42;;;;;;;17.20;15.57;;;10.90;99.90;;;11.64;76.14;95973.25;5259180;28;20707;-56
2022/04/24 02:40:19;;;;;;;17.63;15.95;;;10.90;99.90;;;11.56;76.10;95974.78;5253314;28;20290;-57
2022/04/24 02:42:52;;;;;;;18.35;16.60;;;10.80;99.90;;;11.56;77.08;95966.22;5252126;28;20642;-57
2022/04/24 02:45:25;;;;;;;17.45;15.85;;;10.80;99.90;;;11.57;79.96;95962.88;5255908;28;20306;-55
2022/04/24 02:47:58;;;;;;;18.58;16.85;;;10.90;99.90;;;11.54;81.09;95962.78;5259890;28;20287;-56
2022/04/24 02:50:31;;;;;;;18.75;16.85;;;10.90;99.90;;;11.54;81.79;95960.25;5251587;28;20298;-57
2022/04/24 02:53:06;;;;;;;19.92;18.02;;;10.80;99.90;;;11.50;82.76;95960.16;5250458;28;20295;-58
2022/04/24 02:55:39;;;;;;;19.45;17.60;;;10.80;99.90;;;11.48;83.76;95966.06;5256854;28;20293;-57
2022/04/24 02:58:12;;;;;;;20.90;18.80;;;10.80;99.90;;;11.48;84.46;95984.00;5260589;28;20206;-58
2022/04/24 03:00:50;;;;;;;20.02;18.02;;;10.80;99.90;;;11.44;85.65;95995.81;5262668;28;20476;-56
2022/04/24 03:03:23;;;;;;;18.85;17.05;;;10.80;99.90;;;11.45;85.73;96004.38;5251000;28;20202;-57
2022/04/24 03:05:56;;;;;;;19.40;17.40;;;10.70;99.90;;;11.43;85.67;96003.47;5254382;28;20230;-58
2022/04/24 03:08:32;;;;;;;19.35;17.45;;;10.70;99.90;;;11.39;86.12;96001.66;5256539;28;20297;-57
2022/04/24 03:11:05;;;;;;;19.50;17.60;;;10.60;99.90;;;11.34;86.99;96005.81;5253223;28;20295;-57
2022/04/24 03:13:38;;;;;;;20.58;18.58;;;10.60;99.90;;;11.26;87.53;96003.94;5257509;28;20238;-58
2022/04/24 03:16:11;;;;;;;19.38;17.58;;;10.60;99.90;;;11.17;87.11;95993.47;5252573;28;20260;-58
2022/04/24 03:18:44;;;;;;;18.85;17.10;;;10.50;99.90;;;11.06;87.75;95994.91;5263593;28;20204;-58
2022/04/24 03:21:17;;;;;;;20.70;18.70;;;10.50;99.90;;;11.09;89.13;95994.97;5264458;28;20291;-59
2022/04/24 03:23:51;;;;;;;19.15;17.35;;;10.50;99.90;;;11.10;88.94;95998.41;5254766;28;20287;-60
2022/04/24 03:26:24;;;;;;;21.95;19.75;;;10.50;99.90;;;11.11;88.97;95997.59;5263448;28;20306;-60
2022/04/24 03:28:57;;;;;;;22.20;20.08;;;10.50;99.90;;;11.09;90.38;95986.47;5256680;28;20701;-60
2022/04/24 03:31:30;;;;;;;20.60;18.60;;;10.50;99.90;;;10.99;90.68;96001.56;5251514;28;20192;-59
2022/04/24 03:34:05;;;;;;;22.13;19.92;;;10.40;99.90;;;10.95;90.51;95986.09;5265068;28;20298;-60
2022/04/24 03:36:38;;;;;;;21.08;18.98;;;10.40;99.90;;;10.89;91.18;95984.25;5264824;28;20318;-61
2022/04/24 03:39:13;;;;;;;19.58;17.75;;;10.30;99.90;;;10.87;90.76;95991.00;5257189;28;20331;-60
2022/04/24 03:41:46;;;;;;;22.08;19.85;;;10.30;99.90;;;10.89;91.33;95991.06;5260002;28;20290;-59
2022/04/24 03:44:19;;;;;;;21.90;19.77;;;10.20;99.90;;;10.89;92.53;95991.06;5263411;28;20628;-61
2022/04/24 03:46:52;;;;;;;20.57;18.60;;;10.30;99.90;;;10.83;92.69;95994.34;5263644;28;20762;-61
2022/04/24 03:49:25;;;;;;;21.20;19.10;;;10.20;99.90;;;10.74;91.54;95994.97;5251021;28;20291;-61
2022/04/24 03:51:59;;;;;;;19.87;17.97;;;10.10;99.90;;;10.72;93.35;95994.03;5262075;28;20298;-61
2022/04/24 03:54:33;;;;;;;22.63;20.17;;;10.20;99.90;;;10.74;93.21;95999.22;5265643;28;20204;-61
2022/04/24 03:57:07;;;;;;;21.00;19.00;;;10.20;99.90;;;10.71;93.87;96007.66;5255688;28;20742;-60
2022/04/24 03:59:40;;;;;;;22.52;20.23;;;10.10;99.90;;;10.72;94.46;96011.94;5258175;28;20204;-62
2022/04/24 04:02:13;;;;;;;23.10;20.90;;;10.10;99.90;;;10.69;94.40;96006.75;5251673;28;21038;-61
2022/04/24 04:04:47;;;;;;;21.80;19.60;;;10.10;99.90;;;10.61;93.66;96003.13;5262631;28;20265;-61
2022/04/24 04:07:20;;;;;;;22.87;20.57;;;10.00;99.90;;;10.62;94.51;96004.88;5260301;28;20561;-61
2022/04/24 04:09:56;;;;;;;21.93;19.63;;;10.00;99.90;;;10.60;94.27;96002.25;5254136;28;20290;-61
2022/04/24 04:12:29;;;;;;;21.60;19.40;;;10.00;99.90;;;10.57;94.48;96006.44;5261944;28;20223;-61
2022/04/24 04:15:03;;;;;;;23.40;20.87;;;10.00;99.90;;;10.60;94.87;96020.13;5258190;28;20292;-61
2022/04/24 04:17:36;;;;;;;22.57;20.37;;;10.00;99.90;;;10.61;96.36;96018.44;5253854;28;20310;-61
2022/04/24 04:20:12;;;;;;;21.13;19.00;;;10.00;99.90;;;10.62;95.37;96020.19;5256120;28;20257;-61
2022/04/24 04:22:50;;;;;;;25.20;22.48;;;10.10;99.90;;;10.71;95.45;96020.44;5256790;28;20188;-60
2022/04/24 04:25:25;;;;;;;23.53;21.20;;;10.10;99.90;;;10.73;96.07;96034.13;5257372;28;20220;-61
2022/04/24 04:27:58;;;;;;;25.05;22.55;;;10.10;99.90;;;10.73;96.01;96031.56;5248581;28;20654;-61
2022/04/24 04:30:31;;;;;;;25.20;22.43;;;10.10;99.90;;;10.69;97.19;96039.97;5250734;28;20196;-61
2022/04/24 04:33:04;;;;;;;24.63;22.03;;;10.10;99.90;;;10.58;97.20;96033.69;5253000;28;20214;-60
2022/04/24 04:35:38;;;;;;;24.50;22.00;;;10.00;99.90;;;10.54;98.00;96042.09;5258344;28;20224;-61
2022/04/24 04:38:11;;;;;;;24.33;21.43;;;9.90;99.90;;;10.55;97.49;96028.50;5258481;28;20255;-60
2022/04/24 04:40:45;;;;;;;23.27;20.83;;;9.90;99.90;;;10.48;96.54;96047.06;5254958;28;20246;-59
2022/04/24 04:43:18;;;;;;;23.27;20.87;;;9.80;99.90;;;10.37;97.15;96055.25;5249004;28;20227;-59
2022/04/24 04:45:51;;;;;;;25.07;22.03;;;9.70;99.90;;;10.33;97.96;96052.56;5246442;28;20216;-61
2022/04/24 04:48:25;;;;;;;25.13;22.53;;;9.70;99.90;;;10.29;99.51;96056.72;5260334;28;20199;-60
2022/04/24 04:50:58;;;;;;;28.10;25.23;;;9.70;99.90;;;10.26;99.32;96066.81;5258698;28;20207;-60
2022/04/24 04:53:33;;;;;;;28.37;25.37;;;9.70;99.90;;;10.29;100.00;96071.19;5258680;28;20235;-61
2022/04/24 04:56:07;;;;;;;28.67;25.60;;;9.80;99.90;;;10.25;100.00;96079.56;5263156;28;20754;-61
2022/04/24 04:58:40;;;;;;;36.20;29.33;;;9.70;99.90;;;10.25;100.00;96079.56;5255598;28;20671;-61
2022/04/24 05:01:13;;;;;;;39.23;31.77;;;9.80;99.90;;;10.23;100.00;96087.16;5246603;28;20278;-61
2022/04/24 05:03:46;;;;;;;45.37;34.87;;;9.70;99.90;;;10.26;100.00;96091.50;5256048;28;20200;-61
2022/04/24 05:06:21;;;;;;;56.80;40.67;;;9.70;99.90;;;10.38;100.00;96148.06;5256618;28;20302;-62
2022/04/24 05:08:54;;;;;;;25.70;22.03;;;9.80;99.90;;;10.30;100.00;96142.75;5258367;28;20191;-61
2022/04/24 05:11:28;;;;;;;13.90;11.60;;;9.70;99.90;;;9.91;100.00;96124.47;5258662;28;20739;-62
2022/04/24 05:14:01;;;;;;;10.37;9.17;;;9.40;99.90;;;9.75;100.00;96148.63;5262090;28;20294;-62
2022/04/24 05:16:39;;;;;;;7.43;6.63;;;9.20;99.90;;;9.60;100.00;96164.31;5250713;28;20277;-62
2022/04/24 05:19:12;;;;;;;6.00;5.40;;;9.10;99.90;;;9.38;100.00;96172.91;5262724;28;20259;-62
2022/04/24 05:21:45;;;;;;;5.07;4.57;;;8.90;99.90;;;9.17;100.00;96169.63;5252630;28;20191;-62
2022/04/24 05:24:18;;;;;;;4.90;3.20;;;8.80;99.90;;;9.01;100.00;96161.47;5254291;28;20290;-63
2022/04/24 05:26:53;;;;;;;3.80;3.40;;;8.70;99.90;;;8.99;100.00;96178.38;5250969;28;20307;-61
2022/04/24 05:29:26;;;;;;;4.17;3.87;;;8.50;99.90;;;8.96;100.00;96178.25;5256248;28;20200;-62
2022/04/24 05:31:59;;;;;;;4.37;3.97;;;8.50;99.90;;;8.85;100.00;96178.69;5253684;28;20828;-63
2022/04/24 05:34:32;;;;;;;4.27;3.97;;;8.40;99.90;;;8.84;100.00;96182.03;5256248;28;20208;-62
2022/04/24 05:37:06;;;;;;;3.87;3.57;;;8.40;99.90;;;8.88;100.00;96179.66;5252242;28;20598;-63
2022/04/24 05:39:39;;;;;;;4.27;3.90;;;8.40;99.90;;;8.84;100.00;96179.47;5244020;28;20296;-62
2022/04/24 05:42:14;;;;;;;4.17;3.87;;;8.40;99.90;;;8.87;100.00;96172.84;5256968;28;20228;-61
2022/04/24 05:44:47;;;;;;;4.03;3.70;;;8.40;99.90;;;8.85;100.00;96179.56;5265193;28;20284;-62
2022/04/24 05:47:20;;;;;;;3.80;3.57;;;8.40;99.90;;;8.86;100.00;96166.00;5259697;28;20375;-63
2022/04/24 05:49:53;;;;;;;4.30;3.70;;;8.30;99.90;;;8.86;100.00;96163.44;5254464;28;20645;-65
2022/04/24 05:52:28;;;;;;;4.10;3.80;;;8.40;99.90;;;8.89;100.00;96170.34;5254872;28;21257;-63
2022/04/24 05:55:01;;;;;;;3.60;3.30;;;8.40;99.90;;;8.87;100.00;96171.94;5252173;28;20204;-62
2022/04/24 05:57:36;;;;;;;3.47;3.07;;;8.40;99.90;;;8.93;100.00;96165.41;5259505;28;20255;-62
2022/04/24 06:00:12;;;;;;;3.50;3.20;;;8.40;99.90;;;8.85;100.00;96169.38;5260037;28;20284;-63
2022/04/24 06:02:45;;;;;;;3.80;3.50;;;8.30;99.90;;;8.73;100.00;96171.47;5257890;28;20235;-62
2022/04/24 06:05:19;;;;;;;3.43;3.13;;;8.20;99.90;;;8.73;100.00;96174.88;5259359;28;20318;-63
2022/04/24 06:07:52;;;;;;;4.13;3.50;;;8.20;99.90;;;8.74;100.00;96179.16;5254821;28;20189;-63
2022/04/24 06:10:25;;;;;;;3.63;3.43;;;8.20;99.90;;;8.59;100.00;96165.88;5262435;28;20257;-62
2022/04/24 06:13:00;;;;;;;3.40;3.20;;;8.10;99.90;;;8.72;100.00;96172.25;5263790;28;20239;-62
2022/04/24 06:15:33;;;;;;;4.17;3.27;;;8.10;99.90;;;8.79;100.00;96177.66;5263055;28;20251;-63
2022/04/24 06:18:06;;;;;;;3.73;2.87;;;8.20;99.90;;;8.74;100.00;96181.69;5254750;28;20357;-62
2022/04/24 06:20:39;;;;;;;4.23;2.93;;;8.20;99.90;;;8.76;100.00;96174.13;5258196;28;20298;-63
2022/04/24 06:23:13;;;;;;;2.97;2.73;;;8.20;99.90;;;8.75;100.00;96173.22;5258783;28;20299;-62
2022/04/24 06:25:46;;;;;;;3.20;2.73;;;8.10;99.90;;;8.77;100.00;96179.25;5258647;28;20220;-63
2022/04/24 06:28:20;;;;;;;2.87;2.67;;;8.20;99.90;;;8.76;100.00;96169.91;5257639;28;20638;-62
2022/04/24 06:30:53;;;;;;;3.77;2.97;;;8.20;99.90;;;8.87;100.00;96172.84;5259837;28;20230;-63
2022/04/24 06:33:27;;;;;;;3.00;2.80;;;8.30;99.90;;;8.88;100.00;96166.94;5259664;28;20250;-62
2022/04/24 06:36:02;;;;;;;3.73;2.63;;;8.30;99.90;;;8.95;100.00;96170.53;5257746;28;20316;-62
2022/04/24 06:38:35;;;;;;;4.10;3.80;;;8.20;99.90;;;8.90;100.00;96172.06;5254710;28;20342;-63
2022/04/24 06:41:08;;;;;;;4.07;3.67;;;8.20;99.90;;;8.91;100.00;96174.69;5262799;28;20292;-62
2022/04/24 06:43:42;;;;;;;4.30;3.90;;;8.30;99.90;;;8.94;100.00;96184.97;5261402;28;20607;-64
2022/04/24 06:46:15;;;;;;;3.43;2.70;;;8.30;99.90;;;9.01;100.00;96186.94;5261564;28;20313;-63
2022/04/24 06:48:49;;;;;;;3.53;3.03;;;8.30;99.90;;;9.01;100.00;96178.41;5251640;28;20204;-63
2022/04/24 06:51:22;;;;;;;3.50;2.63;;;8.30;99.90;;;9.03;100.00;96185.28;5258351;28;20201;-64
2022/04/24 06:53:55;;;;;;;3.80;3.50;;;8.30;99.90;;;9.01;100.00;96181.84;5260508;28;20208;-62
2022/04/24 06:56:28;;;;;;;3.50;3.20;;;8.30;99.90;;;9.02;100.00;96182.72;5254727;28;20250;-64
2022/04/24 06:59:02;;;;;;;3.00;2.80;;;8.30;99.90;;;9.05;100.00;96187.91;5260140;28;20266;-63
2022/04/24 07:01:35;;;;;;;2.90;2.70;;;8.30;99.90;;;9.07;100.00;96198.16;5251512;28;20231;-64
2022/04/24 07:04:09;;;;;;;2.60;2.40;;;8.30;99.90;;;9.07;100.00;96191.41;5256152;28;20274;-64
2022/04/24 07:06:42;;;;;;;3.40;2.70;;;8.20;99.90;;;9.12;100.00;96196.63;5257422;28;20220;-63
2022/04/24 07:09:15;;;;;;;3.10;2.90;;;8.30;99.90;;;9.06;100.00;96217.66;5259624;28;20200;-62
2022/04/24 07:11:48;;;;;;;3.00;2.80;;;8.20;99.90;;;8.99;100.00;96208.94;5259567;28;20208;-63
2022/04/24 07:14:22;;;;;;;3.97;2.27;;;8.20;99.90;;;9.02;100.00;96206.50;5263200;28;20196;-63
2022/04/24 07:16:55;;;;;;;2.57;2.47;;;8.20;99.90;;;9.04;100.00;96211.63;5254549;28;20247;-64
2022/04/24 07:19:28;;;;;;;1.70;1.60;;;8.20;99.90;;;8.97;100.00;96215.66;5255149;28;20687;-63
2022/04/24 07:22:02;;;;;;;2.50;2.40;;;8.20;99.90;;;8.88;100.00;96219.56;5255675;28;20212;-63
2022/04/24 07:24:35;;;;;;;2.63;2.20;;;8.10;99.90;;;8.87;100.00;96218.69;5263549;28;20227;-63
2022/04/24 07:27:08;;;;;;;2.67;2.47;;;8.10;99.90;;;8.86;100.00;96228.81;5258875;28;20273;-64
2022/04/24 07:29:42;;;;;;;1.90;1.80;;;8.00;99.90;;;8.82;100.00;96225.31;5262696;28;20195;-62
2022/04/24 07:32:17;;;;;;;2.20;2.10;;;8.10;99.90;;;8.85;100.00;96230.50;5262244;28;20758;-64
2022/04/24 07:34:50;;;;;;;2.30;2.10;;;8.10;99.90;;;8.85;100.00;96232.19;5257767;28;20310;-62
2022/04/24 07:37:23;;;;;;;2.50;2.23;;;8.10;99.90;;;8.87;100.00;96234.00;5256965;28;20243;-61
2022/04/24 07:39:56;;;;;;;2.47;2.27;;;8.20;99.90;;;8.88;100.00;96245.03;5263437;28;20322;-62
2022/04/24 07:42:29;;;;;;;2.13;2.03;;;8.10;99.90;;;8.93;100.00;96239.31;5259446;28;20196;-64
2022/04/24 07:45:04;;;;;;;2.30;2.10;;;8.20;99.90;;;9.00;100.00;96248.03;5253405;28;20628;-64
2022/04/24 07:47:37;;;;;;;2.07;1.97;;;8.20;99.90;;;8.98;100.00;96253.06;5255872;28;20296;-64
2022/04/24 07:50:10;;;;;;;2.30;2.13;;;8.10;99.90;;;8.88;100.00;96245.91;5259464;28;20614;-64
2022/04/24 07:52:48;;;;;;;2.30;2.10;;;8.10;99.90;;;8.89;100.00;96251.88;5258138;28;20220;-64
2022/04/24 07:55:24;;;;;;;2.00;1.90;;;8.10;99.90;;;8.84;100.00;96263.56;5252643;28;20311;-64
2022/04/24 07:57:58;;;;;;;2.13;2.03;;;8.10;99.90;;;8.85;100.00;96258.53;5258791;28;20294;-63
2022/04/24 08:00:34;;;;;;;1.70;1.60;;;8.10;99.90;;;8.85;100.00;96262.75;5259926;28;20292;-63
2022/04/24 08:03:08;;;;;;;1.80;1.70;;;8.10;99.90;;;8.84;100.00;96254.22;5258678;28;20199;-64
2022/04/24 08:05:44;;;;;;;1.60;1.50;;;8.00;99.90;;;8.83;100.00;96257.59;5259157;28;20677;-64
2022/04/24 08:08:20;;;;;;;1.70;1.60;;;8.10;99.90;;;8.88;100.00;96256.09;5256815;28;20292;-64
2022/04/24 08:10:55;;;;;;;2.10;1.90;;;8.10;99.90;;;8.85;100.00;96258.53;5248023;28;20642;-64
2022/04/24 08:13:29;;;;;;;1.67;1.67;;;8.00;99.90;;;8.86;100.00;96252.59;5257540;28;20275;-64
2022/04/24 08:16:04;;;;;;;1.73;1.63;;;8.10;99.90;;;8.91;100.00;96253.66;5259895;28;20224;-63
2022/04/24 08:18:37;;;;;;;1.93;1.83;;;8.10;99.90;;;8.85;100.00;96255.97;5259325;28;20196;-63
2022/04/24 08:21:10;;;;;;;2.93;2.03;;;8.10;99.90;;;8.82;100.00;96250.78;5262954;28;20655;-63
2022/04/24 08:23:44;;;;;;;2.17;2.07;;;8.10;99.90;;;8.90;100.00;96253.59;5251954;28;20303;-63
2022/04/24 08:26:18;;;;;;;1.73;1.63;;;8.10;99.90;;;8.90;100.00;96254.47;5259594;28;20269;-63
2022/04/24 08:28:51;;;;;;;2.50;2.40;;;8.10;99.90;;;8.88;100.00;96247.59;5256459;28;20235;-64
2022/04/24 08:31:25;;;;;;;3.07;2.87;;;8.10;99.90;;;8.91;100.00;96246.00;5254445;28;20643;-63
2022/04/24 08:33:58;;;;;;;2.00;1.90;;;8.10;99.90;;;8.98;100.00;96247.97;5248830;28;20207;-63
2022/04/24 08:36:31;;;;;;;2.53;2.43;;;8.20;99.90;;;8.88;100.00;96245.91;5250966;28;20299;-63
2022/04/24 08:39:04;;;;;;;2.50;2.40;;;8.20;99.90;;;8.82;100.00;96248.22;5260126;28;20680;-63
2022/04/24 08:41:41;;;;;;;2.37;2.20;;;8.10;99.90;;;8.82;100.00;96243.13;5250311;28;20639;-63
2022/04/24 08:44:14;;;;;;;2.40;2.30;;;8.10;99.90;;;8.94;100.00;96245.25;5256259;28;20231;-63
2022/04/24 08:46:48;;;;;;;2.10;2.00;;;8.20;99.90;;;8.99;100.00;96253.94;5252608;28;20251;-63
2022/04/24 08:49:23;;;;;;;2.83;2.73;;;8.20;99.90;;;9.12;100.00;96251.03;5254291;28;20230;-63
2022/04/24 08:51:57;;;;;;;2.90;2.70;;;8.30;99.90;;;9.15;100.00;96253.69;5248983;28;20200;-63
2022/04/24 08:54:30;;;;;;;2.53;2.33;;;8.30;99.90;;;9.26;100.00;96259.16;5251654;28;20231;-63
2022/04/24 08:57:04;;;;;;;2.83;2.33;;;8.30;99.90;;;9.21;100.00;96250.47;5249829;28;20252;-63
2022/04/24 08:59:37;;;;;;;2.33;2.23;;;8.30;99.90;;;9.14;100.00;96258.75;5251234;28;20247;-63
2022/04/24 09:02:12;;;;;;;2.10;2.00;;;8.30;99.90;;;9.24;100.00;96260.78;5249810;28;20199;-63
2022/04/24 09:04:45;;;;;;;2.80;2.60;;;8.40;99.90;;;9.36;100.00;96256.16;5253408;28;20651;-63
2022/04/24 09:07:19;;;;;;;2.60;2.40;;;8.50;99.90;;;9.38;100.00;96259.59;5250397;28;20251;-63
2022/04/24 09:09:53;;;;;;;2.27;2.17;;;8.50;99.90;;;9.39;100.00;96256.25;5250826;28;20583;-64
2022/04/24 09:12:28;;;;;;;1.43;1.43;;;8.50;99.90;;;9.44;100.00;96264.06;5252987;28;20739;-63
2022/04/24 09:15:02;;;;;;;2.30;2.20;;;8.60;99.90;;;9.36;100.00;96266.34;5253754;28;20199;-63
2022/04/24 09:17:38;;;;;;;2.50;2.30;;;8.50;99.90;;;9.40;100.00;96269.88;5254602;28;20635;-63
2022/04/24 09:20:19;;;;;;;1.73;1.63;;;8.50;99.90;;;9.42;100.00;96279.31;5252050;28;20374;-63
2022/04/24 09:23:03;;;;;;;1.73;1.63;;;8.50;99.90;;;9.40;100.00;96275.84;5253892;28;20243;-63
2022/04/24 09:25:39;;;;;;;2.43;2.10;;;8.50;99.90;;;9.35;100.00;96268.84;5257402;28;20215;-65
2022/04/24 09:28:12;;;;;;;2.47;2.27;;;8.50;99.90;;;9.42;100.00;96271.66;5259885;28;20208;-65
2022/04/24 09:30:51;;;;;;;3.53;3.33;;;8.60;99.90;;;9.43;100.00;96282.72;5257307;28;20228;-63
2022/04/24 09:33:36;;;;;;;2.57;2.43;;;8.50;99.90;;;9.41;100.00;96282.69;5253867;28;20672;-63
2022/04/24 09:36:13;;;;;;;2.37;2.27;;;8.60;99.90;;;9.41;100.00;96287.78;5257561;28;20239;-63
2022/04/24 09:38:46;;;;;;;2.10;1.97;;;8.60;99.90;;;9.36;100.00;96289.31;5259024;28;20200;-64
2022/04/24 09:41:24;;;;;;;2.80;2.70;;;8.60;99.90;;;9.30;100.00;96293.28;5260571;28;20204;-63
2022/04/24 09:43:57;;;;;;;2.07;1.93;;;8.50;99.90;;;9.40;100.00;96295.38;5259041;28;20505;-66
2022/04/24 09:46:31;;;;;;;1.83;1.80;;;8.60;99.90;;;9.52;100.00;96302.59;5257182;28;20311;-64
2022/04/24 09:49:09;;;;;;;2.10;2.00;;;8.60;99.90;;;9.47;100.00;96303.31;5255221;28;20676;-64
2022/04/24 09:51:43;;;;;;;2.40;2.20;;;8.60;99.90;;;9.45;100.00;96306.59;5251940;28;20235;-63
2022/04/24 09:54:17;;;;;;;1.70;1.60;;;8.70;99.90;;;9.47;100.00;96307.50;5258254;28;20277;-63
2022/04/24 09:56:52;;;;;;;2.40;2.30;;;8.60;99.90;;;9.45;100.00;96310.03;5258028;28;20243;-63
2022/04/24 09:59:27;;;;;;;2.60;2.50;;;8.70;99.90;;;9.61;100.00;96310.56;5261783;28;20679;-63
2022/04/24 10:02:01;;;;;;;2.10;2.00;;;8.80;99.90;;;9.63;100.00;96321.69;5256232;28;20199;-65
2022/04/24 10:04:42;;;;;;;2.20;2.10;;;8.70;99.90;;;9.61;100.00;96319.06;5251077;28;20564;-65
2022/04/24 10:07:19;;;;;;;2.07;1.97;;;8.70;99.90;;;9.55;100.00;96313.75;5253646;28;20300;-65
2022/04/24 10:09:53;;;;;;;1.83;1.73;;;8.70;99.90;;;9.61;100.00;96325.88;5255383;28;20329;-65
2022/04/24 10:12:26;;;;;;;2.23;2.13;;;8.80;99.90;;;9.62;100.00;96325.06;5255966;28;20625;-65
2022/04/24 10:15:10;;;;;;;1.93;1.77;;;8.70;99.90;;;9.63;100.00;96324.25;5260810;28;20231;-65
2022/04/24 10:18:03;;;;;;;2.00;1.90;;;8.80;99.90;;;9.61;100.00;96319.06;5254183;28;20201;-66
2022/04/24 10:21:39;;;;;;;11.23;7.90;;;8.80;99.90;;;9.65;100.00;96320.06;5254434;28;20216;-65
2022/04/24 10:24:14;;;;;;;2.10;2.00;;;8.80;99.90;;;9.70;100.00;96331.31;5195575;28;20194;-65
2022/04/24 10:26:54;;;;;;;3.57;3.37;;;8.90;99.90;;;9.68;100.00;96331.25;5250221;28;20302;-66
2022/04/24 10:29:28;;;;;;;2.87;2.77;;;9.00;99.90;;;9.85;100.00;96329.28;5255375;28;20594;-64
2022/04/24 10:32:02;;;;;;;2.03;1.90;;;9.00;99.90;;;9.86;100.00;96331.03;5250992;28;20231;-64
2022/04/24 10:34:41;;;;;;;1.80;1.70;;;9.00;99.90;;;9.81;100.00;96337.63;5249223;28;20212;-65
2022/04/24 10:37:26;;;;;;;2.10;1.90;;;9.00;99.90;;;9.85;100.00;96339.50;5256033;28;20219;-65
2022/04/24 10:40:03;;;;;;;1.73;1.63;;;9.10;99.90;;;9.88;100.00;96339.59;5250737;28;20239;-65
2022/04/24 10:42:38;;;;;;;2.30;2.20;;;9.00;99.90;;;9.85;100.00;96336.09;5254221;28;20199;-64
2022/04/24 10:45:14;;;;;;;2.40;2.20;;;9.00;99.90;;;9.87;100.00;96339.53;5254860;28;20200;-64